sensor_id;sensor_type;location;lat;lon;timestamp;pressure;altitude;pressure_sealevel;temperature;humidity
39739;BME280;25422;48.286;8.484;2024-02-15T00:00:18;94559.22;;;3.40;100.00
39739;BME280;25422;48.286;8.484;2024-02-15T00:02:44;94555.31;;;3.46;100.00
39739;BME280;25422;48.286;8.484;2024-02-15T00:05:10;94557.22;;;3.44;100.00
39739;BME280;25422;48.286;8.484;2024-02-15T00:07:36;94551.13;;;3.45;100.00
39739;BME280;25422;48.286;8.484;2024-02-15T00:10:02;94551.91;;;3.57;100.00
39739;BME280;25422;48.286;8.484;2024-02-15T00:12:29;94549.47;;;3.55;100.00
39739;BME280;25422;48.286;8.484;2024-02-15T00:14:55;94553.34;;;3.49;100.00
39739;BME280;25422;48.286;8.484;2024-02-15T00:17:24;94557.09;;;3.45;100.00
39739;BME280;25422;48.286;8.484;2024-02-15T00:19:50;94556.88;;;3.37;100.00
39739;BME280;25422;48.286;8.484;2024-02-15T00:22:16;94563.31;;;3.31;100.00
39739;BME280;25422;48.286;8.484;2024-02-15T00:24:41;94562.50;;;3.31;100.00
39739;BME280;25422;48.286;8.484;2024-02-15T00:27:08;94556.38;;;3.32;100.00
39739;BME280;25422;48.286;8.484;2024-02-15T00:29:33;94554.84;;;3.29;100.00
39739;BME280;25422;48.286;8.484;2024-02-15T00:32:00;94544.75;;;3.26;100.00
39739;BME280;25422;48.286;8.484;2024-02-15T00:34:26;94546.03;;;3.32;100.00
39739;BME280;25422;48.286;8.484;2024-02-15T00:36:52;94551.78;;;3.24;100.00
39739;BME280;25422;48.286;8.484;2024-02-15T00:39:18;94551.78;;;3.24;100.00
39739;BME280;25422;48.286;8.484;2024-02-15T00:41:44;94549.19;;;3.24;100.00
39739;BME280;25422;48.286;8.484;2024-02-15T00:44:10;94549.19;;;3.13;100.00
39739;BME280;25422;48.286;8.484;2024-02-15T00:46:36;94555.66;;;3.07;100.00
39739;BME280;25422;48.286;8.484;2024-02-15T00:49:03;94555.97;;;3.02;100.00
39739;BME280;25422;48.286;8.484;2024-02-15T00:51:32;94561.25;;;3.01;100.00
39739;BME280;25422;48.286;8.484;2024-02-15T00:53:58;94558.13;;;3.09;100.00
39739;BME280;25422;48.286;8.484;2024-02-15T00:56:24;94559.28;;;3.04;100.00
39739;BME280;25422;48.286;8.484;2024-02-15T00:58:49;94555.03;;;3.03;100.00
39739;BME280;25422;48.286;8.484;2024-02-15T01:01:15;94548.94;;;3.04;100.00
39739;BME280;25422;48.286;8.484;2024-02-15T01:03:40;94543.28;;;2.99;100.00
39739;BME280;25422;48.286;8.484;2024-02-15T01:06:06;94543.53;;;2.96;100.00
39739;BME280;25422;48.286;8.484;2024-02-15T01:08:32;94547.50;;;2.89;100.00
39739;BME280;25422;48.286;8.484;2024-02-15T01:10:58;94543.22;;;2.77;100.00
39739;BME280;25422;48.286;8.484;2024-02-15T01:13:23;94549.47;;;2.74;100.00
39739;BME280;25422;48.286;8.484;2024-02-15T01:15:50;94550.00;;;2.66;100.00
39739;BME280;25422;48.286;8.484;2024-02-15T01:18:15;94544.59;;;2.58;100.00
39739;BME280;25422;48.286;8.484;2024-02-15T01:20:41;94530.56;;;2.49;100.00
39739;BME280;25422;48.286;8.484;2024-02-15T01:23:06;94538.31;;;2.49;100.00
39739;BME280;25422;48.286;8.484;2024-02-15T01:25:33;94537.63;;;2.47;100.00
39739;BME280;25422;48.286;8.484;2024-02-15T01:27:58;94537.94;;;2.43;100.00
39739;BME280;25422;48.286;8.484;2024-02-15T01:30:24;94537.22;;;2.41;100.00
39739;BME280;25422;48.286;8.484;2024-02-15T01:32:50;94528.75;;;2.39;100.00
39739;BME280;25422;48.286;8.484;2024-02-15T01:35:15;94534.38;;;2.32;100.00
39739;BME280;25422;48.286;8.484;2024-02-15T01:37:40;94538.94;;;2.29;100.00
39739;BME280;25422;48.286;8.484;2024-02-15T01:40:06;94534.66;;;2.16;100.00
39739;BME280;25422;48.286;8.484;2024-02-15T01:42:32;94529.72;;;2.13;100.00
39739;BME280;25422;48.286;8.484;2024-02-15T01:44:58;94532.03;;;2.05;100.00
39739;BME280;25422;48.286;8.484;2024-02-15T01:47:23;94529.22;;;2.08;100.00
39739;BME280;25422;48.286;8.484;2024-02-15T01:49:50;94527.03;;;2.15;100.00
39739;BME280;25422;48.286;8.484;2024-02-15T01:52:17;94528.44;;;2.19;100.00
39739;BME280;25422;48.286;8.484;2024-02-15T01:54:44;94530.91;;;2.21;100.00
39739;BME280;25422;48.286;8.484;2024-02-15T01:57:15;94529.16;;;2.21;100.00
39739;BME280;25422;48.286;8.484;2024-02-15T01:59:41;94524.44;;;2.15;100.00
39739;BME280;25422;48.286;8.484;2024-02-15T02:02:08;94524.75;;;2.10;100.00
39739;BME280;25422;48.286;8.484;2024-02-15T02:04:37;94532.84;;;2.06;100.00
39739;BME280;25422;48.286;8.484;2024-02-15T02:07:03;94519.53;;;1.99;100.00
39739;BME280;25422;48.286;8.484;2024-02-15T02:09:29;94517.72;;;1.88;100.00
39739;BME280;25422;48.286;8.484;2024-02-15T02:11:54;94520.94;;;1.79;100.00
39739;BME280;25422;48.286;8.484;2024-02-15T02:14:20;94516.44;;;1.69;100.00
39739;BME280;25422;48.286;8.484;2024-02-15T02:16:46;94509.03;;;1.65;100.00
39739;BME280;25422;48.286;8.484;2024-02-15T02:19:12;94505.75;;;1.63;100.00
39739;BME280;25422;48.286;8.484;2024-02-15T02:21:38;94506.03;;;1.71;100.00
39739;BME280;25422;48.286;8.484;2024-02-15T02:24:14;94514.16;;;2.02;100.00
39739;BME280;25422;48.286;8.484;2024-02-15T02:26:43;94512.88;;;2.32;100.00
39739;BME280;25422;48.286;8.484;2024-02-15T02:29:09;94504.72;;;2.38;100.00
39739;BME280;25422;48.286;8.484;2024-02-15T02:31:35;94506.69;;;2.34;100.00
39739;BME280;25422;48.286;8.484;2024-02-15T02:34:02;94512.16;;;2.18;100.00
39739;BME280;25422;48.286;8.484;2024-02-15T02:36:28;94506.03;;;1.95;100.00
39739;BME280;25422;48.286;8.484;2024-02-15T02:38:55;94506.91;;;1.83;100.00
39739;BME280;25422;48.286;8.484;2024-02-15T02:41:20;94504.00;;;1.88;100.00
39739;BME280;25422;48.286;8.484;2024-02-15T02:43:46;94503.38;;;1.84;100.00
39739;BME280;25422;48.286;8.484;2024-02-15T02:46:12;94501.34;;;1.76;100.00
39739;BME280;25422;48.286;8.484;2024-02-15T02:48:38;94512.09;;;1.70;100.00
39739;BME280;25422;48.286;8.484;2024-02-15T02:51:05;94516.81;;;1.76;100.00
39739;BME280;25422;48.286;8.484;2024-02-15T02:53:31;94512.50;;;1.77;100.00
39739;BME280;25422;48.286;8.484;2024-02-15T02:55:57;94504.03;;;1.75;100.00
39739;BME280;25422;48.286;8.484;2024-02-15T02:58:22;94509.94;;;1.77;100.00
39739;BME280;25422;48.286;8.484;2024-02-15T03:00:51;94502.69;;;1.82;100.00
39739;BME280;25422;48.286;8.484;2024-02-15T03:03:17;94502.69;;;1.82;100.00
39739;BME280;25422;48.286;8.484;2024-02-15T03:05:44;94503.00;;;1.77;100.00
39739;BME280;25422;48.286;8.484;2024-02-15T03:08:13;94505.00;;;1.74;100.00
39739;BME280;25422;48.286;8.484;2024-02-15T03:10:38;94498.75;;;1.76;100.00
39739;BME280;25422;48.286;8.484;2024-02-15T03:13:05;94503.72;;;1.79;100.00
39739;BME280;25422;48.286;8.484;2024-02-15T03:15:30;94502.78;;;1.80;100.00
39739;BME280;25422;48.286;8.484;2024-02-15T03:17:58;94500.94;;;1.69;100.00
39739;BME280;25422;48.286;8.484;2024-02-15T03:20:23;94493.88;;;1.60;100.00
39739;BME280;25422;48.286;8.484;2024-02-15T03:22:58;94500.19;;;1.56;100.00
39739;BME280;25422;48.286;8.484;2024-02-15T03:25:24;94502.94;;;1.53;100.00
39739;BME280;25422;48.286;8.484;2024-02-15T03:27:54;94500.81;;;1.47;100.00
39739;BME280;25422;48.286;8.484;2024-02-15T03:30:21;94509.59;;;1.44;100.00
39739;BME280;25422;48.286;8.484;2024-02-15T03:32:47;94505.69;;;1.39;100.00
39739;BME280;25422;48.286;8.484;2024-02-15T03:35:24;94501.44;;;1.38;100.00
39739;BME280;25422;48.286;8.484;2024-02-15T03:37:50;94500.53;;;1.39;100.00
39739;BME280;25422;48.286;8.484;2024-02-15T03:40:19;94494.63;;;1.37;100.00
39739;BME280;25422;48.286;8.484;2024-02-15T03:42:46;94501.16;;;1.29;100.00
39739;BME280;25422;48.286;8.484;2024-02-15T03:45:15;94510.72;;;1.27;100.00
39739;BME280;25422;48.286;8.484;2024-02-15T03:47:41;94511.75;;;1.25;100.00
39739;BME280;25422;48.286;8.484;2024-02-15T03:50:07;94504.25;;;1.22;100.00
39739;BME280;25422;48.286;8.484;2024-02-15T03:52:35;94503.31;;;1.10;100.00
39739;BME280;25422;48.286;8.484;2024-02-15T03:55:01;94506.63;;;1.12;100.00
39739;BME280;25422;48.286;8.484;2024-02-15T03:57:27;94508.56;;;1.08;100.00
39739;BME280;25422;48.286;8.484;2024-02-15T03:59:53;94509.72;;;1.04;100.00
39739;BME280;25422;48.286;8.484;2024-02-15T04:02:20;94505.69;;;1.00;100.00
39739;BME280;25422;48.286;8.484;2024-02-15T04:04:46;94506.72;;;0.97;100.00
39739;BME280;25422;48.286;8.484;2024-02-15T04:07:15;94505.81;;;0.98;100.00
39739;BME280;25422;48.286;8.484;2024-02-15T04:09:45;94508.38;;;0.98;100.00
39739;BME280;25422;48.286;8.484;2024-02-15T04:12:11;94511.38;;;1.05;100.00
39739;BME280;25422;48.286;8.484;2024-02-15T04:14:37;94513.13;;;1.05;100.00
39739;BME280;25422;48.286;8.484;2024-02-15T04:17:06;94506.09;;;1.07;100.00
39739;BME280;25422;48.286;8.484;2024-02-15T04:19:32;94508.69;;;1.07;100.00
39739;BME280;25422;48.286;8.484;2024-02-15T04:21:58;94514.06;;;1.04;100.00
39739;BME280;25422;48.286;8.484;2024-02-15T04:24:25;94510.97;;;0.98;100.00
39739;BME280;25422;48.286;8.484;2024-02-15T04:26:51;94503.53;;;1.07;100.00
39739;BME280;25422;48.286;8.484;2024-02-15T04:29:16;94499.31;;;1.06;100.00
39739;BME280;25422;48.286;8.484;2024-02-15T04:31:45;94488.69;;;1.10;100.00
39739;BME280;25422;48.286;8.484;2024-02-15T04:34:17;94492.13;;;0.98;100.00
39739;BME280;25422;48.286;8.484;2024-02-15T04:36:47;94495.50;;;0.86;100.00
39739;BME280;25422;48.286;8.484;2024-02-15T04:39:19;94500.53;;;0.74;100.00
39739;BME280;25422;48.286;8.484;2024-02-15T04:41:52;94493.41;;;0.65;100.00
39739;BME280;25422;48.286;8.484;2024-02-15T04:44:18;94490.41;;;0.58;100.00
39739;BME280;25422;48.286;8.484;2024-02-15T04:50:17;94486.19;;;0.44;100.00
39739;BME280;25422;48.286;8.484;2024-02-15T04:52:43;94485.66;;;0.39;100.00
39739;BME280;25422;48.286;8.484;2024-02-15T04:55:12;94497.72;;;0.39;100.00
39739;BME280;25422;48.286;8.484;2024-02-15T04:57:37;94499.16;;;0.43;100.00
39739;BME280;25422;48.286;8.484;2024-02-15T05:00:03;94498.78;;;0.49;100.00
39739;BME280;25422;48.286;8.484;2024-02-15T05:02:37;94499.19;;;0.56;100.00
39739;BME280;25422;48.286;8.484;2024-02-15T05:05:08;94500.94;;;0.55;100.00
39739;BME280;25422;48.286;8.484;2024-02-15T05:07:34;94491.78;;;0.64;100.00
39739;BME280;25422;48.286;8.484;2024-02-15T05:10:03;94485.31;;;0.71;100.00
39739;BME280;25422;48.286;8.484;2024-02-15T05:12:31;94481.06;;;0.70;100.00
39739;BME280;25422;48.286;8.484;2024-02-15T05:14:59;94478.38;;;0.72;100.00
39739;BME280;25422;48.286;8.484;2024-02-15T05:17:24;94471.59;;;0.71;100.00
39739;BME280;25422;48.286;8.484;2024-02-15T05:19:50;94473.66;;;0.78;100.00
39739;BME280;25422;48.286;8.484;2024-02-15T05:22:15;94473.75;;;0.77;100.00
39739;BME280;25422;48.286;8.484;2024-02-15T05:24:41;94482.28;;;0.77;100.00
39739;BME280;25422;48.286;8.484;2024-02-15T05:27:06;94485.72;;;0.78;100.00
39739;BME280;25422;48.286;8.484;2024-02-15T05:29:32;94478.63;;;0.81;100.00
39739;BME280;25422;48.286;8.484;2024-02-15T05:32:01;94473.53;;;0.80;100.00
39739;BME280;25422;48.286;8.484;2024-02-15T05:34:27;94476.44;;;0.75;100.00
39739;BME280;25422;48.286;8.484;2024-02-15T05:36:55;94474.06;;;0.72;100.00
39739;BME280;25422;48.286;8.484;2024-02-15T05:39:20;94473.66;;;0.65;100.00
39739;BME280;25422;48.286;8.484;2024-02-15T05:41:47;94479.31;;;0.58;100.00
39739;BME280;25422;48.286;8.484;2024-02-15T05:44:13;94469.31;;;0.53;100.00
39739;BME280;25422;48.286;8.484;2024-02-15T05:46:44;94470.53;;;0.47;100.00
39739;BME280;25422;48.286;8.484;2024-02-15T05:49:10;94457.97;;;0.43;100.00
39739;BME280;25422;48.286;8.484;2024-02-15T05:51:41;94470.94;;;0.41;100.00
39739;BME280;25422;48.286;8.484;2024-02-15T05:54:06;94483.50;;;0.33;100.00
39739;BME280;25422;48.286;8.484;2024-02-15T05:56:31;94477.81;;;0.28;100.00
39739;BME280;25422;48.286;8.484;2024-02-15T05:58:57;94474.34;;;0.29;100.00
39739;BME280;25422;48.286;8.484;2024-02-15T06:01:22;94470.31;;;0.38;100.00
39739;BME280;25422;48.286;8.484;2024-02-15T06:03:49;94470.94;;;0.41;100.00
39739;BME280;25422;48.286;8.484;2024-02-15T06:06:16;94469.09;;;0.43;100.00
39739;BME280;25422;48.286;8.484;2024-02-15T06:08:41;94470.84;;;0.43;100.00
39739;BME280;25422;48.286;8.484;2024-02-15T06:11:07;94471.59;;;0.45;100.00
39739;BME280;25422;48.286;8.484;2024-02-15T06:13:34;94476.72;;;0.45;100.00
39739;BME280;25422;48.286;8.484;2024-02-15T06:16:00;94464.56;;;0.47;100.00
39739;BME280;25422;48.286;8.484;2024-02-15T06:18:27;94469.72;;;0.47;100.00
39739;BME280;25422;48.286;8.484;2024-02-15T06:20:58;94470.53;;;0.47;100.00
39739;BME280;25422;48.286;8.484;2024-02-15T06:23:24;94467.63;;;0.39;100.00
39739;BME280;25422;48.286;8.484;2024-02-15T06:25:52;94462.06;;;0.32;100.00
39739;BME280;25422;48.286;8.484;2024-02-15T06:28:24;94473.09;;;0.35;100.00
39739;BME280;25422;48.286;8.484;2024-02-15T06:31:09;94474.03;;;0.33;100.00
39739;BME280;25422;48.286;8.484;2024-02-15T06:33:54;94470.22;;;0.39;100.00
39739;BME280;25422;48.286;8.484;2024-02-15T06:36:46;94479.00;;;0.49;100.00
39739;BME280;25422;48.286;8.484;2024-02-15T06:39:31;94480.22;;;0.57;100.00
39739;BME280;25422;48.286;8.484;2024-02-15T06:42:11;94464.16;;;0.66;100.00
39739;BME280;25422;48.286;8.484;2024-02-15T06:44:40;94473.66;;;0.78;100.00
39739;BME280;25422;48.286;8.484;2024-02-15T06:47:06;94473.84;;;0.88;100.00
39739;BME280;25422;48.286;8.484;2024-02-15T06:49:32;94463.47;;;0.90;100.00
39739;BME280;25422;48.286;8.484;2024-02-15T06:51:58;94462.00;;;0.98;100.00
39739;BME280;25422;48.286;8.484;2024-02-15T06:54:27;94445.59;;;1.12;100.00
39739;BME280;25422;48.286;8.484;2024-02-15T06:56:52;94443.03;;;1.12;100.00
39739;BME280;25422;48.286;8.484;2024-02-15T06:59:20;94443.75;;;1.14;100.00
39739;BME280;25422;48.286;8.484;2024-02-15T07:01:49;94445.59;;;1.25;100.00
39739;BME280;25422;48.286;8.484;2024-02-15T07:04:15;94451.53;;;1.39;100.00
39739;BME280;25422;48.286;8.484;2024-02-15T07:06:40;94453.38;;;1.49;100.00
39739;BME280;25422;48.286;8.484;2024-02-15T07:09:10;94453.31;;;1.62;100.00
39739;BME280;25422;48.286;8.484;2024-02-15T07:11:36;94447.28;;;1.75;100.00
39739;BME280;25422;48.286;8.484;2024-02-15T07:14:02;94438.97;;;1.71;100.00
39739;BME280;25422;48.286;8.484;2024-02-15T07:16:29;94436.53;;;1.81;100.00
39739;BME280;25422;48.286;8.484;2024-02-15T07:18:55;94426.03;;;1.95;100.00
39739;BME280;25422;48.286;8.484;2024-02-15T07:21:21;94427.06;;;2.17;100.00
39739;BME280;25422;48.286;8.484;2024-02-15T07:23:52;94427.78;;;2.30;100.00
39739;BME280;25422;48.286;8.484;2024-02-15T07:26:20;94427.34;;;2.36;100.00
39739;BME280;25422;48.286;8.484;2024-02-15T07:28:46;94425.38;;;2.40;100.00
39739;BME280;25422;48.286;8.484;2024-02-15T07:31:13;94426.69;;;2.46;100.00
39739;BME280;25422;48.286;8.484;2024-02-15T07:33:40;94427.97;;;2.51;100.00
39739;BME280;25422;48.286;8.484;2024-02-15T07:36:08;94425.66;;;2.71;100.00
39739;BME280;25422;48.286;8.484;2024-02-15T07:38:34;94421.31;;;2.83;100.00
39739;BME280;25422;48.286;8.484;2024-02-15T07:41:00;94427.91;;;2.98;100.00
39739;BME280;25422;48.286;8.484;2024-02-15T07:43:25;94423.22;;;3.03;100.00
39739;BME280;25422;48.286;8.484;2024-02-15T07:45:51;94417.91;;;3.28;100.00
39739;BME280;25422;48.286;8.484;2024-02-15T07:48:17;94423.63;;;3.65;100.00
39739;BME280;25422;48.286;8.484;2024-02-15T07:50:43;94417.09;;;4.15;100.00
39739;BME280;25422;48.286;8.484;2024-02-15T07:53:10;94415.63;;;4.54;100.00
39739;BME280;25422;48.286;8.484;2024-02-15T07:55:37;94408.72;;;5.27;100.00
39739;BME280;25422;48.286;8.484;2024-02-15T07:58:03;94411.97;;;5.69;100.00
39739;BME280;25422;48.286;8.484;2024-02-15T08:00:30;94415.34;;;6.20;100.00
39739;BME280;25422;48.286;8.484;2024-02-15T08:02:55;94414.91;;;6.54;100.00
39739;BME280;25422;48.286;8.484;2024-02-15T08:05:22;94411.88;;;6.59;100.00
39739;BME280;25422;48.286;8.484;2024-02-15T08:07:48;94411.16;;;6.86;100.00
39739;BME280;25422;48.286;8.484;2024-02-15T08:10:15;94407.16;;;6.92;100.00
39739;BME280;25422;48.286;8.484;2024-02-15T08:12:41;94406.53;;;7.18;100.00
39739;BME280;25422;48.286;8.484;2024-02-15T08:15:07;94403.91;;;6.80;100.00
39739;BME280;25422;48.286;8.484;2024-02-15T08:17:43;94407.25;;;7.38;100.00
39739;BME280;25422;48.286;8.484;2024-02-15T08:20:12;94408.38;;;7.63;100.00
39739;BME280;25422;48.286;8.484;2024-02-15T08:22:38;94418.38;;;8.22;100.00
39739;BME280;25422;48.286;8.484;2024-02-15T08:27:31;94404.94;;;8.89;100.00
39739;BME280;25422;48.286;8.484;2024-02-15T08:29:59;94399.91;;;8.69;100.00
39739;BME280;25422;48.286;8.484;2024-02-15T08:32:24;94406.09;;;7.78;100.00
39739;BME280;25422;48.286;8.484;2024-02-15T08:34:50;94398.47;;;7.39;100.00
39739;BME280;25422;48.286;8.484;2024-02-15T08:37:15;94394.72;;;7.23;100.00
39739;BME280;25422;48.286;8.484;2024-02-15T08:39:41;94389.94;;;6.81;100.00
39739;BME280;25422;48.286;8.484;2024-02-15T08:42:10;94387.09;;;7.12;100.00
39739;BME280;25422;48.286;8.484;2024-02-15T08:44:35;94383.78;;;7.20;100.00
39739;BME280;25422;48.286;8.484;2024-02-15T08:47:01;94374.13;;;7.02;100.00
39739;BME280;25422;48.286;8.484;2024-02-15T08:49:27;94371.13;;;6.97;100.00
39739;BME280;25422;48.286;8.484;2024-02-15T08:51:56;94361.84;;;6.95;100.00
39739;BME280;25422;48.286;8.484;2024-02-15T08:54:21;94363.22;;;6.99;100.00
39739;BME280;25422;48.286;8.484;2024-02-15T08:56:47;94367.66;;;7.06;100.00
39739;BME280;25422;48.286;8.484;2024-02-15T08:59:12;94366.81;;;6.78;100.00
39739;BME280;25422;48.286;8.484;2024-02-15T09:01:40;94365.81;;;6.99;100.00
39739;BME280;25422;48.286;8.484;2024-02-15T09:04:06;94364.97;;;6.98;100.00
39739;BME280;25422;48.286;8.484;2024-02-15T09:06:31;94357.59;;;6.94;100.00
39739;BME280;25422;48.286;8.484;2024-02-15T09:08:57;94350.44;;;7.05;100.00
39739;BME280;25422;48.286;8.484;2024-02-15T09:11:28;94351.13;;;7.35;100.00
39739;BME280;25422;48.286;8.484;2024-02-15T09:13:53;94350.28;;;7.35;100.00
39739;BME280;25422;48.286;8.484;2024-02-15T09:16:20;94340.50;;;7.47;100.00
39739;BME280;25422;48.286;8.484;2024-02-15T09:18:47;94339.72;;;7.82;100.00
39739;BME280;25422;48.286;8.484;2024-02-15T09:24:03;94334.34;;;8.64;100.00
39739;BME280;25422;48.286;8.484;2024-02-15T09:26:29;94327.34;;;8.65;100.00
39739;BME280;25422;48.286;8.484;2024-02-15T09:28:55;94320.66;;;8.97;100.00
39739;BME280;25422;48.286;8.484;2024-02-15T09:31:21;94319.19;;;8.94;100.00
39739;BME280;25422;48.286;8.484;2024-02-15T09:33:46;94315.97;;;8.48;100.00
39739;BME280;25422;48.286;8.484;2024-02-15T09:36:11;94312.22;;;8.68;100.00
39739;BME280;25422;48.286;8.484;2024-02-15T09:38:37;94309.22;;;8.89;100.00
39739;BME280;25422;48.286;8.484;2024-02-15T09:41:03;94304.56;;;9.09;100.00
39739;BME280;25422;48.286;8.484;2024-02-15T09:43:33;94307.25;;;8.83;100.00
39739;BME280;25422;48.286;8.484;2024-02-15T09:45:58;94296.84;;;8.65;100.00
39739;BME280;25422;48.286;8.484;2024-02-15T09:48:25;94303.84;;;8.91;100.00
39739;BME280;25422;48.286;8.484;2024-02-15T09:50:52;94299.41;;;8.83;100.00
39739;BME280;25422;48.286;8.484;2024-02-15T09:53:21;94306.56;;;8.81;100.00
39739;BME280;25422;48.286;8.484;2024-02-15T09:55:47;94310.06;;;8.98;100.00
39739;BME280;25422;48.286;8.484;2024-02-15T09:58:13;94307.97;;;9.02;100.00
39739;BME280;25422;48.286;8.484;2024-02-15T10:00:40;94306.22;;;9.10;100.00
39739;BME280;25422;48.286;8.484;2024-02-15T10:03:06;94301.50;;;9.22;100.00
39739;BME280;25422;48.286;8.484;2024-02-15T10:05:34;94298.28;;;9.37;100.00
39739;BME280;25422;48.286;8.484;2024-02-15T10:08:00;94300.16;;;9.69;100.00
39739;BME280;25422;48.286;8.484;2024-02-15T10:10:27;94312.09;;;9.88;100.00
39739;BME280;25422;48.286;8.484;2024-02-15T10:12:53;94299.88;;;10.05;100.00
39739;BME280;25422;48.286;8.484;2024-02-15T10:15:33;94299.53;;;9.67;100.00
39739;BME280;25422;48.286;8.484;2024-02-15T10:18:01;94307.53;;;9.82;100.00
39739;BME280;25422;48.286;8.484;2024-02-15T10:20:27;94297.41;;;9.95;100.00
39739;BME280;25422;48.286;8.484;2024-02-15T10:23:09;94288.78;;;10.44;100.00
39739;BME280;25422;48.286;8.484;2024-02-15T10:25:35;94283.19;;;10.31;100.00
39739;BME280;25422;48.286;8.484;2024-02-15T10:28:06;94284.34;;;10.45;100.00
39739;BME280;25422;48.286;8.484;2024-02-15T10:30:38;94284.53;;;10.43;100.00
39739;BME280;25422;48.286;8.484;2024-02-15T10:33:06;94283.69;;;10.18;100.00
39739;BME280;25422;48.286;8.484;2024-02-15T10:35:33;94294.66;;;10.13;100.00
39739;BME280;25422;48.286;8.484;2024-02-15T10:38:25;94297.25;;;10.22;100.00
39739;BME280;25422;48.286;8.484;2024-02-15T10:41:03;94290.94;;;10.89;100.00
39739;BME280;25422;48.286;8.484;2024-02-15T10:43:30;94285.94;;;10.71;100.00
39739;BME280;25422;48.286;8.484;2024-02-15T10:45:56;94286.47;;;11.06;100.00
39739;BME280;25422;48.286;8.484;2024-02-15T10:48:21;94290.34;;;11.18;100.00
39739;BME280;25422;48.286;8.484;2024-02-15T10:50:47;94284.66;;;11.46;100.00
39739;BME280;25422;48.286;8.484;2024-02-15T10:58:19;94273.72;;;11.11;100.00
39739;BME280;25422;48.286;8.484;2024-02-15T11:00:46;94269.91;;;11.22;100.00
39739;BME280;25422;48.286;8.484;2024-02-15T11:03:19;94274.03;;;11.39;100.00
39739;BME280;25422;48.286;8.484;2024-02-15T11:05:47;94268.75;;;11.47;100.00
39739;BME280;25422;48.286;8.484;2024-02-15T11:08:13;94271.41;;;11.39;100.00
39739;BME280;25422;48.286;8.484;2024-02-15T11:10:40;94260.56;;;11.51;100.00
39739;BME280;25422;48.286;8.484;2024-02-15T11:13:10;94264.53;;;11.46;100.00
39739;BME280;25422;48.286;8.484;2024-02-15T11:18:01;94266.94;;;11.79;100.00
39739;BME280;25422;48.286;8.484;2024-02-15T11:23:02;94261.13;;;12.16;100.00
39739;BME280;25422;48.286;8.484;2024-02-15T11:25:38;94259.31;;;12.16;100.00
39739;BME280;25422;48.286;8.484;2024-02-15T11:30:51;94255.69;;;12.17;100.00
39739;BME280;25422;48.286;8.484;2024-02-15T11:33:32;94247.88;;;12.62;100.00
39739;BME280;25422;48.286;8.484;2024-02-15T11:36:06;94245.63;;;12.74;100.00
39739;BME280;25422;48.286;8.484;2024-02-15T11:38:32;94246.22;;;13.21;100.00
39739;BME280;25422;48.286;8.484;2024-02-15T11:46:16;94241.81;;;12.76;100.00
39739;BME280;25422;48.286;8.484;2024-02-15T11:48:45;94242.09;;;12.67;100.00
39739;BME280;25422;48.286;8.484;2024-02-15T11:51:28;94235.66;;;12.69;100.00
39739;BME280;25422;48.286;8.484;2024-02-15T11:54:07;94235.66;;;12.69;100.00
39739;BME280;25422;48.286;8.484;2024-02-15T11:56:49;94228.53;;;12.78;100.00
39739;BME280;25422;48.286;8.484;2024-02-15T11:59:20;94227.97;;;12.82;100.00
39739;BME280;25422;48.286;8.484;2024-02-15T12:01:58;94224.16;;;13.00;100.00
39739;BME280;25422;48.286;8.484;2024-02-15T12:04:46;94225.03;;;13.07;100.00
39739;BME280;25422;48.286;8.484;2024-02-15T12:07:30;94221.16;;;13.55;97.15
39739;BME280;25422;48.286;8.484;2024-02-15T12:10:18;94226.53;;;13.68;96.72
39739;BME280;25422;48.286;8.484;2024-02-15T12:13:02;94220.69;;;13.66;99.56
39739;BME280;25422;48.286;8.484;2024-02-15T12:16:01;94217.41;;;13.86;95.14
39739;BME280;25422;48.286;8.484;2024-02-15T12:18:45;94212.66;;;13.96;97.03
39739;BME280;25422;48.286;8.484;2024-02-15T12:21:25;94199.78;;;14.36;94.35
39739;BME280;25422;48.286;8.484;2024-02-15T12:23:53;94206.16;;;14.83;91.31
39739;BME280;25422;48.286;8.484;2024-02-15T12:26:19;94202.84;;;14.68;85.83
39739;BME280;25422;48.286;8.484;2024-02-15T12:28:50;94199.91;;;14.56;86.41
39739;BME280;25422;48.286;8.484;2024-02-15T12:31:16;94195.66;;;14.27;89.26
39739;BME280;25422;48.286;8.484;2024-02-15T12:33:42;94191.22;;;13.99;88.35
39739;BME280;25422;48.286;8.484;2024-02-15T12:36:08;94188.56;;;14.21;91.11
39739;BME280;25422;48.286;8.484;2024-02-15T12:38:35;94192.34;;;13.90;95.64
39739;BME280;25422;48.286;8.484;2024-02-15T12:41:23;94186.16;;;13.97;92.99
39739;BME280;25422;48.286;8.484;2024-02-15T12:43:52;94182.53;;;13.98;94.01
39739;BME280;25422;48.286;8.484;2024-02-15T12:46:18;94183.38;;;14.34;91.37
39739;BME280;25422;48.286;8.484;2024-02-15T12:48:44;94179.53;;;14.30;87.61
39739;BME280;25422;48.286;8.484;2024-02-15T12:51:14;94168.22;;;14.08;89.79
39739;BME280;25422;48.286;8.484;2024-02-15T12:53:40;94168.44;;;14.41;87.65
39739;BME280;25422;48.286;8.484;2024-02-15T12:56:07;94153.84;;;14.67;85.11
39739;BME280;25422;48.286;8.484;2024-02-15T12:58:34;94147.38;;;14.70;82.84
39739;BME280;25422;48.286;8.484;2024-02-15T13:01:00;94141.19;;;14.97;80.09
39739;BME280;25422;48.286;8.484;2024-02-15T13:03:27;94135.53;;;14.59;81.74
39739;BME280;25422;48.286;8.484;2024-02-15T13:05:52;94127.41;;;14.54;79.49
39739;BME280;25422;48.286;8.484;2024-02-15T13:08:17;94126.72;;;14.73;83.26
39739;BME280;25422;48.286;8.484;2024-02-15T13:10:43;94130.09;;;15.15;80.28
39739;BME280;25422;48.286;8.484;2024-02-15T13:13:09;94127.03;;;15.05;80.00
39739;BME280;25422;48.286;8.484;2024-02-15T13:15:35;94122.41;;;15.27;77.07
39739;BME280;25422;48.286;8.484;2024-02-15T13:18:02;94124.50;;;15.45;74.91
39739;BME280;25422;48.286;8.484;2024-02-15T13:20:30;94122.84;;;15.31;75.56
39739;BME280;25422;48.286;8.484;2024-02-15T13:23:00;94126.59;;;14.88;78.65
39739;BME280;25422;48.286;8.484;2024-02-15T13:25:32;94129.03;;;14.90;82.07
39739;BME280;25422;48.286;8.484;2024-02-15T13:27:57;94132.00;;;14.73;83.72
39739;BME280;25422;48.286;8.484;2024-02-15T13:30:22;94131.25;;;14.93;80.39